Time;durP1;ratioP1;P1;durP2;ratioP2;P2;SDS_P1;SDS_P2;PMS_P1;PMS_P2;Temp;Humidity;BMP_temperature;BMP_pressure;BME280_temperature;BME280_humidity;BME280_pressure;Samples;Min_cycle;Max_cycle;Signal;HPM_P1;HPM_P2
2021/05/01 00:01:36;;;;;;;25.90;16.88;;;7.00;98.70;;;;;;5075324;28;20025;-75
2021/05/01 00:04:03;;;;;;;20.05;12.73;;;7.00;98.70;;;;;;5076003;28;20036;-74
2021/05/01 00:06:29;;;;;;;22.92;14.18;;;6.90;98.50;;;;;;5072240;28;20055;-74
2021/05/01 00:08:55;;;;;;;24.90;16.15;;;6.90;99.40;;;;;;5065692;28;20029;-74
2021/05/01 00:11:22;;;;;;;25.40;15.57;;;6.90;99.90;;;;;;5075176;28;20048;-75
2021/05/01 00:13:49;;;;;;;25.05;16.00;;;6.80;99.90;;;;;;5075279;28;20055;-74
2021/05/01 00:16:15;;;;;;;24.42;15.43;;;6.80;99.80;;;;;;5074794;28;20020;-74
2021/05/01 00:18:40;;;;;;;27.08;16.85;;;6.80;99.90;;;;;;5076277;28;20029;-74
2021/05/01 00:21:06;;;;;;;23.27;14.50;;;6.80;99.90;;;;;;5074912;28;20123;-74
2021/05/01 00:23:31;;;;;;;23.45;14.52;;;6.70;99.80;;;;;;5072945;28;20122;-74
2021/05/01 00:25:58;;;;;;;27.67;13.63;;;6.70;99.90;;;;;;5076097;28;20470;-75
2021/05/01 00:28:25;;;;;;;24.98;14.98;;;6.70;99.90;;;;;;5076075;28;20048;-73
2021/05/01 00:30:51;;;;;;;24.63;15.15;;;6.70;99.90;;;;;;5074475;28;20082;-74
2021/05/01 00:33:16;;;;;;;24.00;13.23;;;6.70;99.90;;;;;;5075882;28;20457;-74
2021/05/01 00:35:43;;;;;;;25.08;15.68;;;6.70;99.90;;;;;;5076043;28;20033;-74
2021/05/01 00:38:09;;;;;;;26.75;16.25;;;6.70;99.50;;;;;;5075897;28;20059;-74
2021/05/01 00:40:35;;;;;;;24.23;14.80;;;6.80;99.90;;;;;;5071034;28;20129;-75
2021/05/01 00:43:01;;;;;;;26.55;15.00;;;6.80;99.60;;;;;;5055774;28;20538;-74
2021/05/01 00:45:26;;;;;;;25.08;15.68;;;6.80;98.00;;;;;;5054516;28;20032;-74
2021/05/01 00:47:52;;;;;;;25.33;15.77;;;6.80;97.90;;;;;;5054449;28;20025;-74
2021/05/01 00:50:18;;;;;;;24.52;15.27;;;6.80;98.00;;;;;;5055723;28;20028;-74
2021/05/01 00:52:44;;;;;;;23.58;15.50;;;6.80;98.80;;;;;;5054771;28;20033;-74
2021/05/01 00:55:10;;;;;;;24.33;14.13;;;6.80;98.50;;;;;;5075661;28;20490;-74
2021/05/01 00:57:37;;;;;;;26.20;14.30;;;6.70;99.00;;;;;;5073906;28;20103;-73
2021/05/01 01:00:32;;;;;;;25.83;14.95;;;6.70;99.30;;;;;;5074256;28;20025;-74
2021/05/01 01:02:58;;;;;;;24.40;16.02;;;6.70;99.70;;;;;;5074141;28;20028;-74
2021/05/01 01:05:24;;;;;;;24.15;16.45;;;6.70;99.10;;;;;;5074064;28;20035;-74
2021/05/01 01:07:50;;;;;;;25.58;15.73;;;6.70;99.30;;;;;;5072740;28;20024;-74
2021/05/01 01:10:16;;;;;;;27.30;15.48;;;6.80;98.70;;;;;;5073910;28;20025;-74
2021/05/01 01:12:42;;;;;;;22.10;14.50;;;6.80;98.40;;;;;;5073349;28;20039;-74
2021/05/01 01:15:09;;;;;;;27.42;16.92;;;6.80;98.30;;;;;;5073840;28;20021;-75
2021/05/01 01:17:35;;;;;;;24.58;15.32;;;6.80;97.70;;;;;;5075385;28;20032;-74
2021/05/01 01:20:00;;;;;;;23.95;14.20;;;6.80;97.30;;;;;;5075271;28;20028;-74
2021/05/01 01:22:26;;;;;;;23.17;14.00;;;6.90;95.40;;;;;;5074817;28;20470;-74
2021/05/01 01:24:52;;;;;;;23.55;15.43;;;6.90;95.50;;;;;;5074799;28;20027;-74
2021/05/01 01:27:18;;;;;;;24.55;14.30;;;6.90;94.90;;;;;;5075003;28;20025;-75
2021/05/01 01:29:44;;;;;;;27.73;14.52;;;6.90;94.50;;;;;;5074936;28;20033;-74
2021/05/01 01:32:11;;;;;;;22.65;14.45;;;6.90;94.70;;;;;;5074560;28;20032;-74
2021/05/01 01:34:42;;;;;;;23.27;13.75;;;6.90;94.10;;;;;;5073673;28;20432;-74
2021/05/01 01:37:07;;;;;;;22.88;14.80;;;6.90;93.70;;;;;;5074924;28;20099;-74
2021/05/01 01:39:33;;;;;;;23.95;13.63;;;6.90;93.90;;;;;;5073708;28;20106;-74
2021/05/01 01:41:59;;;;;;;19.13;12.93;;;6.90;92.10;;;;;;5074424;28;20024;-74
2021/05/01 01:44:24;;;;;;;20.20;13.23;;;6.90;92.30;;;;;;5073458;28;20479;-75
2021/05/01 01:46:50;;;;;;;22.83;13.48;;;6.90;92.20;;;;;;5073337;28;20024;-74
2021/05/01 01:49:15;;;;;;;18.83;12.75;;;6.90;91.40;;;;;;5073441;28;20096;-75
2021/05/01 01:51:41;;;;;;;22.88;14.43;;;6.90;91.60;;;;;;5073259;28;20058;-73
2021/05/01 01:54:07;;;;;;;19.15;13.13;;;6.90;91.90;;;;;;5074335;28;20123;-74
2021/05/01 01:56:37;;;;;;;23.90;13.30;;;6.80;91.70;;;;;;5074358;28;20021;-74
2021/05/01 01:59:04;;;;;;;18.05;11.77;;;6.80;91.20;;;;;;5074614;28;20109;-74
2021/05/01 02:01:34;;;;;;;18.58;13.38;;;6.80;90.70;;;;;;5074041;28;20028;-74
2021/05/01 02:04:00;;;;;;;21.33;13.02;;;6.80;91.90;;;;;;5072912;28;20473;-74
2021/05/01 02:06:26;;;;;;;18.75;11.63;;;6.80;91.10;;;;;;5073085;28;20471;-75
2021/05/01 02:08:52;;;;;;;18.88;12.52;;;6.80;91.10;;;;;;5074237;28;20024;-73
2021/05/01 02:11:18;;;;;;;19.25;12.23;;;6.80;90.70;;;;;;5074141;28;20028;-74
2021/05/01 02:13:44;;;;;;;20.05;12.93;;;6.70;90.50;;;;;;5074142;28;20021;-74
2021/05/01 02:16:10;;;;;;;19.13;13.27;;;6.80;90.40;;;;;;5072754;28;20059;-74
2021/05/01 02:18:36;;;;;;;18.63;12.80;;;6.70;90.50;;;;;;5074001;28;20052;-74
2021/05/01 02:21:02;;;;;;;19.17;12.55;;;6.70;90.40;;;;;;5072643;28;20017;-76
2021/05/01 02:23:27;;;;;;;18.92;12.27;;;6.70;90.40;;;;;;5073609;28;20016;-74
2021/05/01 02:25:53;;;;;;;20.45;12.32;;;6.70;89.90;;;;;;5071896;28;20474;-75
2021/05/01 02:28:19;;;;;;;17.45;11.07;;;6.60;90.00;;;;;;5073720;28;20025;-74
2021/05/01 02:30:45;;;;;;;19.65;11.38;;;6.60;89.70;;;;;;5073652;28;20038;-75
2021/05/01 02:33:11;;;;;;;19.83;11.27;;;6.60;89.60;;;;;;5072351;28;20173;-74
2021/05/01 02:35:38;;;;;;;17.95;12.02;;;6.60;89.90;;;;;;5072448;28;20112;-74
2021/05/01 02:38:04;;;;;;;16.67;12.48;;;6.60;90.60;;;;;;5072039;28;20445;-74
2021/05/01 02:40:32;;;;;;;18.48;11.98;;;6.60;90.10;;;;;;5073556;28;20032;-75
2021/05/01 02:43:00;;;;;;;20.17;12.27;;;6.60;90.70;;;;;;5073488;28;20847;-74
2021/05/01 02:45:26;;;;;;;18.00;11.10;;;6.60;90.00;;;;;;5072293;28;20020;-74
2021/05/01 02:47:52;;;;;;;18.83;11.50;;;6.70;89.30;;;;;;5073442;28;20082;-74
2021/05/01 02:50:18;;;;;;;18.13;11.90;;;6.70;88.40;;;;;;5073454;28;20016;-74
2021/05/01 02:52:44;;;;;;;17.85;12.15;;;6.70;87.60;;;;;;5071991;28;20445;-74
2021/05/01 02:55:13;;;;;;;16.70;10.95;;;6.70;88.50;;;;;;5071833;28;20035;-74
2021/05/01 02:57:39;;;;;;;16.85;10.75;;;6.80;87.10;;;;;;5071923;28;20112;-74
2021/05/01 03:00:07;;;;;;;16.52;10.85;;;6.80;86.50;;;;;;5071977;28;20531;-74
2021/05/01 03:02:33;;;;;;;17.90;11.07;;;6.80;86.10;;;;;;5073152;28;20452;-74
2021/05/01 03:04:59;;;;;;;16.52;9.95;;;6.80;84.80;;;;;;5073138;28;20047;-75
2021/05/01 03:07:25;;;;;;;16.00;10.70;;;6.80;84.50;;;;;;5071783;28;20016;-74
2021/05/01 03:09:51;;;;;;;15.35;9.90;;;6.90;83.80;;;;;;5071888;28;20477;-75
2021/05/01 03:12:16;;;;;;;17.27;9.93;;;6.90;82.80;;;;;;5072867;28;20043;-74
2021/05/01 03:14:42;;;;;;;14.57;10.30;;;7.00;82.00;;;;;;5073145;28;20017;-75
2021/05/01 03:17:08;;;;;;;14.27;9.30;;;7.00;81.30;;;;;;5072929;28;20363;-74
2021/05/01 03:19:34;;;;;;;14.80;9.68;;;7.10;81.10;;;;;;5071772;28;20032;-74
2021/05/01 03:22:00;;;;;;;15.05;9.40;;;7.10;80.00;;;;;;5071550;28;20027;-74
2021/05/01 03:24:25;;;;;;;12.80;8.80;;;7.10;80.00;;;;;;5070971;28;20031;-75
2021/05/01 03:26:51;;;;;;;13.65;8.98;;;7.20;79.40;;;;;;5071685;28;20020;-74
2021/05/01 03:29:16;;;;;;;16.02;10.10;;;7.20;79.00;;;;;;5072873;28;20066;-74
2021/05/01 03:31:42;;;;;;;14.30;9.73;;;7.20;79.00;;;;;;5072443;28;20036;-74
2021/05/01 03:34:08;;;;;;;14.93;9.77;;;7.20;78.80;;;;;;5072574;28;20021;-74
2021/05/01 03:36:33;;;;;;;18.02;10.05;;;7.30;78.50;;;;;;5071213;28;20056;-75
2021/05/01 03:38:59;;;;;;;12.88;9.13;;;7.30;78.50;;;;;;5072743;28;20025;-74
2021/05/01 03:41:24;;;;;;;14.45;8.70;;;7.30;78.20;;;;;;5072753;28;20478;-74
2021/05/01 03:43:50;;;;;;;15.52;10.32;;;7.30;78.00;;;;;;5072777;28;20044;-74
2021/05/01 03:46:16;;;;;;;15.25;10.60;;;7.30;78.00;;;;;;5072769;28;20028;-74
2021/05/01 03:48:42;;;;;;;14.80;10.00;;;7.30;78.00;;;;;;5071327;28;20060;-74
2021/05/01 03:51:07;;;;;;;17.73;9.98;;;7.40;77.60;;;;;;5072541;28;20028;-75
2021/05/01 03:53:33;;;;;;;17.00;11.02;;;7.40;77.60;;;;;;5072256;28;20111;-74
2021/05/01 03:55:58;;;;;;;16.60;9.98;;;7.40;77.80;;;;;;5071214;28;20058;-75
2021/05/01 03:58:24;;;;;;;16.60;9.98;;;7.40;77.90;;;;;;5070430;28;20029;-74
2021/05/01 04:00:50;;;;;;;20.52;12.32;;;7.50;79.10;;;;;;5072368;28;20106;-75
2021/05/01 04:03:16;;;;;;;17.42;11.10;;;7.40;80.20;;;;;;5072547;28;20458;-74
2021/05/01 04:05:41;;;;;;;20.13;11.30;;;7.50;79.60;;;;;;5070867;28;20028;-74
2021/05/01 04:08:07;;;;;;;22.65;13.38;;;7.50;79.50;;;;;;5067747;28;20017;-74
2021/05/01 04:10:34;;;;;;;19.70;11.93;;;7.50;79.50;;;;;;5052020;28;20107;-74
2021/05/01 04:13:00;;;;;;;19.13;12.05;;;7.50;80.50;;;;;;5052088;28;20029;-74
2021/05/01 04:15:26;;;;;;;23.02;13.07;;;7.50;81.70;;;;;;5061900;28;20021;-75
2021/05/01 04:17:53;;;;;;;21.98;11.68;;;7.40;81.00;;;;;;5072247;28;20115;-74
2021/05/01 04:20:19;;;;;;;21.30;13.13;;;7.40;81.20;;;;;;5072038;28;20056;-74
2021/05/01 04:22:45;;;;;;;22.92;13.50;;;7.40;81.70;;;;;;5069718;28;20037;-74
2021/05/01 04:25:12;;;;;;;22.65;12.82;;;7.40;81.90;;;;;;5070764;28;20021;-75
2021/05/01 04:27:38;;;;;;;25.88;14.20;;;7.40;81.10;;;;;;5070806;28;20485;-74
2021/05/01 04:30:07;;;;;;;24.05;14.43;;;7.50;81.60;;;;;;5072056;28;20067;-74
2021/05/01 04:32:32;;;;;;;22.13;13.52;;;7.50;81.50;;;;;;5070707;28;20033;-74
2021/05/01 04:34:58;;;;;;;25.60;14.00;;;7.50;81.80;;;;;;5070673;28;20389;-75
2021/05/01 04:37:24;;;;;;;21.25;13.38;;;7.60;81.70;;;;;;5065780;28;20037;-73
2021/05/01 04:39:49;;;;;;;21.52;13.00;;;7.60;82.00;;;;;;5052016;28;20021;-75
2021/05/01 04:42:15;;;;;;;20.20;12.35;;;7.60;80.70;;;;;;5051802;28;20028;-74
2021/05/01 04:44:41;;;;;;;21.02;13.40;;;7.70;79.50;;;;;;5060362;28;20021;-75
2021/05/01 04:47:06;;;;;;;20.60;12.48;;;7.80;79.40;;;;;;5071953;28;20024;-73
2021/05/01 04:49:32;;;;;;;24.63;12.77;;;7.80;79.70;;;;;;5075699;28;20390;-74
2021/05/01 04:51:59;;;;;;;18.23;11.18;;;7.80;79.20;;;;;;5075354;28;20036;-75
2021/05/01 04:54:25;;;;;;;19.42;13.98;;;7.80;79.10;;;;;;5074085;28;20082;-74
2021/05/01 04:56:51;;;;;;;22.92;12.40;;;7.80;80.70;;;;;;5075977;28;20063;-74
2021/05/01 04:59:16;;;;;;;22.50;13.50;;;7.90;80.60;;;;;;5075619;28;20072;-74
2021/05/01 05:01:42;;;;;;;24.45;14.20;;;7.90;81.10;;;;;;5074110;28;20491;-74
2021/05/01 05:04:08;;;;;;;20.17;13.40;;;7.90;81.10;;;;;;5073830;28;20074;-75
2021/05/01 05:06:33;;;;;;;20.30;12.20;;;7.90;80.90;;;;;;5074974;28;20032;-74
2021/05/01 05:09:00;;;;;;;22.13;12.38;;;7.90;81.10;;;;;;5073917;28;20074;-75
2021/05/01 05:11:26;;;;;;;22.60;13.68;;;7.80;80.40;;;;;;5074387;28;20054;-74
2021/05/01 05:13:52;;;;;;;20.42;12.68;;;7.90;79.60;;;;;;5074982;28;20502;-74
2021/05/01 05:16:18;;;;;;;20.30;12.50;;;7.90;79.70;;;;;;5074950;28;20031;-75
2021/05/01 05:18:44;;;;;;;18.38;12.38;;;7.90;78.90;;;;;;5075105;28;20025;-74
2021/05/01 05:21:10;;;;;;;21.98;14.02;;;7.90;78.50;;;;;;5075007;28;20024;-74
2021/05/01 05:23:35;;;;;;;19.08;12.02;;;7.90;79.00;;;;;;5074873;28;20467;-74
2021/05/01 05:26:01;;;;;;;22.65;13.38;;;7.90;79.70;;;;;;5073463;28;20016;-75
2021/05/01 05:28:26;;;;;;;19.70;12.57;;;8.00;80.30;;;;;;5073624;28;20093;-74
2021/05/01 05:30:52;;;;;;;20.10;13.23;;;8.00;80.20;;;;;;5073617;28;20016;-74
2021/05/01 05:33:18;;;;;;;18.00;11.52;;;7.90;81.80;;;;;;5074636;28;20032;-74
2021/05/01 05:35:43;;;;;;;20.25;12.68;;;7.90;82.40;;;;;;5074484;28;20021;-73
2021/05/01 05:38:09;;;;;;;21.80;14.20;;;8.00;83.00;;;;;;5072959;28;20115;-73
2021/05/01 05:40:35;;;;;;;25.25;13.73;;;8.00;81.40;;;;;;5071510;28;20036;-74
2021/05/01 05:43:01;;;;;;;21.50;14.07;;;8.00;80.80;;;;;;5074505;28;20035;-73
2021/05/01 05:45:30;;;;;;;23.23;12.40;;;8.10;81.70;;;;;;5068229;28;20025;-73
2021/05/01 05:47:56;;;;;;;18.83;11.63;;;8.10;80.80;;;;;;5063050;28;20078;-73
2021/05/01 05:50:22;;;;;;;21.13;13.30;;;8.00;80.00;;;;;;5063328;28;20013;-73
2021/05/01 05:52:48;;;;;;;21.95;12.43;;;8.00;79.70;;;;;;5063531;28;20485;-72
2021/05/01 05:55:15;;;;;;;19.73;12.23;;;7.90;80.40;;;;;;5067578;28;20513;-74
2021/05/01 05:57:47;;;;;;;19.75;12.88;;;7.90;81.10;;;;;;5072808;28;20032;-73
2021/05/01 06:00:13;;;;;;;21.90;13.23;;;7.90;80.80;;;;;;5074089;28;20478;-72
2021/05/01 06:02:43;;;;;;;23.20;13.93;;;7.90;81.70;;;;;;5073969;28;20020;-73
2021/05/01 06:05:08;;;;;;;25.02;14.63;;;7.90;81.40;;;;;;5067918;28;20060;-73
2021/05/01 06:07:40;;;;;;;20.98;13.32;;;7.90;82.30;;;;;;5064235;28;20081;-73
2021/05/01 06:10:08;;;;;;;16.00;10.80;;;8.00;82.70;;;;;;5062849;28;20055;-73
2021/05/01 06:12:34;;;;;;;21.58;13.00;;;7.90;82.10;;;;;;5063985;28;20051;-73
2021/05/01 06:15:06;;;;;;;24.30;14.02;;;8.00;82.10;;;;;;5064763;28;20025;-73
2021/05/01 06:17:33;;;;;;;22.95;14.85;;;8.00;82.50;;;;;;5069100;28;20066;-73
2021/05/01 06:20:00;;;;;;;28.02;14.90;;;8.10;83.50;;;;;;5073844;28;20055;-73
2021/05/01 06:22:26;;;;;;;22.35;13.13;;;8.10;83.20;;;;;;5073651;28;20029;-73
2021/05/01 06:24:55;;;;;;;21.80;13.77;;;8.10;83.40;;;;;;5072250;28;20017;-73
2021/05/01 06:27:21;;;;;;;25.35;14.25;;;8.10;84.50;;;;;;5072299;28;20025;-72
2021/05/01 06:29:48;;;;;;;27.23;16.17;;;8.10;84.90;;;;;;5072003;28;20478;-73
2021/05/01 06:32:15;;;;;;;22.63;14.65;;;8.20;85.80;;;;;;5073345;28;20177;-72
2021/05/01 06:34:47;;;;;;;25.25;14.15;;;8.30;84.80;;;;;;5070020;28;20115;-73
2021/05/01 06:37:16;;;;;;;22.65;14.10;;;8.40;84.90;;;;;;5065787;28;20108;-73
2021/05/01 06:39:46;;;;;;;30.52;15.88;;;8.50;83.50;;;;;;5053354;28;20017;-72
2021/05/01 06:42:25;;;;;;;22.75;14.88;;;8.60;83.40;;;;;;5052011;28;20021;-73
2021/05/01 06:45:00;;;;;;;23.55;15.00;;;8.70;81.80;;;;;;5053261;28;20533;-72
2021/05/01 06:47:28;;;;;;;24.88;15.60;;;9.00;81.60;;;;;;5072608;28;20027;-71
2021/05/01 06:50:00;;;;;;;26.02;16.90;;;9.10;81.60;;;;;;5073238;28;20422;-72
2021/05/01 06:52:26;;;;;;;23.08;14.98;;;9.30;83.30;;;;;;5068605;28;20486;-72
2021/05/01 06:54:52;;;;;;;24.55;14.77;;;9.10;80.60;;;;;;5062408;28;20373;-73
2021/05/01 06:57:23;;;;;;;22.90;14.77;;;9.20;81.30;;;;;;5061627;28;20147;-73
2021/05/01 06:59:54;;;;;;;26.23;16.35;;;9.10;80.90;;;;;;5058607;28;20468;-73
2021/05/01 07:02:35;;;;;;;24.55;15.07;;;9.10;81.00;;;;;;5047607;28;20093;-72
2021/05/01 07:05:00;;;;;;;31.48;17.88;;;9.00;80.10;;;;;;5064683;28;20081;-72
2021/05/01 07:07:28;;;;;;;26.33;15.95;;;9.10;81.60;;;;;;5067559;28;20024;-72
2021/05/01 07:09:54;;;;;;;23.75;15.50;;;9.10;83.20;;;;;;5063218;28;20024;-72
2021/05/01 07:12:23;;;;;;;28.52;16.55;;;9.20;81.50;;;;;;5065478;28;20040;-72
2021/05/01 07:14:49;;;;;;;24.42;16.00;;;9.20;83.80;;;;;;5060811;28;20482;-72
2021/05/01 07:17:15;;;;;;;28.52;16.75;;;9.40;84.00;;;;;;5063122;28;20048;-72
2021/05/01 07:19:42;;;;;;;24.55;15.57;;;9.40;86.00;;;;;;5062679;28;20033;-72
2021/05/01 07:22:10;;;;;;;26.13;16.58;;;9.40;82.30;;;;;;5063284;28;20027;-72
2021/05/01 07:24:36;;;;;;;26.00;16.80;;;9.30;85.50;;;;;;5062758;28;20017;-73
2021/05/01 07:27:03;;;;;;;24.63;15.23;;;9.20;84.80;;;;;;5063628;28;20466;-73
2021/05/01 07:29:41;;;;;;;27.50;16.25;;;9.10;85.90;;;;;;5061361;28;20035;-73
2021/05/01 07:32:09;;;;;;;27.98;17.80;;;9.00;87.70;;;;;;5059485;28;20040;-73
2021/05/01 07:34:35;;;;;;;26.55;16.88;;;9.00;89.70;;;;;;5055237;28;20025;-73
2021/05/01 07:37:14;;;;;;;29.92;16.52;;;9.00;91.00;;;;;;5053996;28;20031;-73
2021/05/01 07:39:40;;;;;;;27.73;17.50;;;9.00;90.20;;;;;;5058511;28;20044;-73
2021/05/01 07:42:07;;;;;;;29.25;18.00;;;9.10;90.60;;;;;;5059469;28;20103;-73
2021/05/01 07:44:33;;;;;;;27.23;16.98;;;9.20;93.40;;;;;;5071480;28;20024;-74
2021/05/01 07:47:00;;;;;;;27.23;16.67;;;9.20;89.20;;;;;;5071554;28;20043;-73
2021/05/01 07:49:27;;;;;;;28.70;17.20;;;9.20;85.00;;;;;;5071649;28;20048;-74
2021/05/01 07:51:56;;;;;;;32.97;18.30;;;9.30;86.40;;;;;;5070567;28;20429;-73
2021/05/01 07:54:22;;;;;;;25.52;16.45;;;9.30;86.00;;;;;;5070107;28;20017;-73
2021/05/01 07:56:48;;;;;;;32.22;19.20;;;9.30;84.00;;;;;;5070787;28;20398;-73
2021/05/01 07:59:14;;;;;;;33.28;19.00;;;9.30;87.30;;;;;;5067957;28;20040;-73
2021/05/01 08:01:41;;;;;;;29.98;18.27;;;9.30;88.60;;;;;;5065349;28;20040;-73
2021/05/01 08:04:08;;;;;;;28.15;16.92;;;9.20;87.00;;;;;;5068928;28;20023;-74
2021/05/01 08:06:34;;;;;;;26.67;16.05;;;9.20;85.90;;;;;;5069698;28;20024;-73
2021/05/01 08:08:59;;;;;;;29.70;16.83;;;9.10;85.80;;;;;;5069859;28;20039;-73
2021/05/01 08:11:25;;;;;;;30.27;17.58;;;9.10;87.80;;;;;;5066794;28;20089;-74
2021/05/01 08:13:51;;;;;;;27.17;16.95;;;9.10;88.10;;;;;;5067608;28;20029;-73
2021/05/01 08:16:17;;;;;;;30.10;18.27;;;9.10;87.50;;;;;;5070368;28;20024;-75
2021/05/01 08:18:43;;;;;;;31.20;18.67;;;9.10;89.30;;;;;;5070577;28;20036;-73
2021/05/01 08:21:09;;;;;;;34.15;19.88;;;9.10;90.00;;;;;;5069336;28;20009;-74
2021/05/01 08:23:36;;;;;;;28.10;17.67;;;9.10;93.50;;;;;;5069876;28;20032;-73
2021/05/01 08:26:04;;;;;;;28.52;17.25;;;9.00;97.00;;;;;;5062241;28;20031;-73
2021/05/01 08:28:30;;;;;;;30.02;17.63;;;8.90;99.40;;;;;;5062428;28;20029;-72
2021/05/01 08:30:56;;;;;;;33.20;19.27;;;8.80;99.90;;;;;;5061408;28;20035;-73
2021/05/01 08:33:21;;;;;;;32.40;19.00;;;8.80;99.90;;;;;;5065734;28;20411;-72
2021/05/01 08:35:47;;;;;;;27.25;16.75;;;8.90;99.90;;;;;;5065622;28;20036;-74
2021/05/01 08:38:14;;;;;;;31.52;19.50;;;9.00;99.90;;;;;;5055265;28;20492;-74
2021/05/01 08:40:40;;;;;;;30.55;18.30;;;9.10;99.90;;;;;;5074322;28;20025;-74
2021/05/01 08:43:07;;;;;;;32.85;19.38;;;9.20;99.90;;;;;;5075328;28;20029;-73
2021/05/01 08:45:32;;;;;;;32.72;20.27;;;9.30;99.90;;;;;;5073361;28;20032;-73
2021/05/01 08:48:00;;;;;;;72.20;42.78;;;9.40;99.90;;;;;;5071400;28;20390;-73
2021/05/01 08:50:26;;;;;;;31.63;21.42;;;9.40;99.90;;;;;;5062657;28;20021;-74
2021/05/01 08:52:53;;;;;;;38.85;22.17;;;9.40;99.90;;;;;;5064184;28;20055;-73
2021/05/01 08:55:21;;;;;;;30.40;19.75;;;9.30;99.90;;;;;;5057236;28;20111;-74
2021/05/01 08:57:46;;;;;;;37.05;23.75;;;9.20;99.90;;;;;;5065083;28;20040;-74
2021/05/01 09:00:12;;;;;;;37.33;22.80;;;9.10;99.90;;;;;;5073043;28;20386;-73
2021/05/01 09:02:40;;;;;;;37.35;22.35;;;9.10;99.90;;;;;;5054442;28;20376;-74
2021/05/01 09:05:08;;;;;;;34.85;22.33;;;9.00;99.90;;;;;;5055120;28;20071;-74
2021/05/01 09:07:36;;;;;;;34.45;21.20;;;9.00;99.90;;;;;;5054869;28;20387;-73
2021/05/01 09:10:05;;;;;;;33.55;19.48;;;8.90;99.90;;;;;;5053634;28;20438;-73
2021/05/01 09:12:37;;;;;;;34.78;20.38;;;8.90;99.90;;;;;;5054899;28;20056;-73
2021/05/01 09:15:06;;;;;;;38.25;23.77;;;9.00;99.90;;;;;;5055268;28;20107;-73
2021/05/01 09:17:33;;;;;;;64.45;40.17;;;8.90;99.90;;;;;;5061625;28;20075;-73
2021/05/01 09:20:11;;;;;;;39.13;23.92;;;8.90;99.90;;;;;;5055857;28;20115;-73
2021/05/01 09:23:15;;;;;;;38.25;24.00;;;8.90;99.90;;;;;;5066085;28;20501;-73
2021/05/01 09:25:57;;;;;;;51.35;33.65;;;8.90;99.90;;;;;;5011381;28;20519;-73
2021/05/01 09:28:23;;;;;;;44.33;27.27;;;8.90;99.90;;;;;;5011778;28;20026;-73
2021/05/01 09:30:57;;;;;;;34.58;20.33;;;9.00;99.90;;;;;;5037764;28;20028;-73
2021/05/01 09:33:31;;;;;;;45.08;28.75;;;9.00;99.90;;;;;;5066008;28;20043;-73
2021/05/01 09:35:59;;;;;;;58.70;33.95;;;9.00;99.90;;;;;;5066521;28;20017;-73
2021/05/01 09:38:33;;;;;;;54.42;34.63;;;9.10;99.90;;;;;;5064054;28;20119;-73
2021/05/01 09:41:07;;;;;;;56.00;31.40;;;9.10;99.90;;;;;;5067162;28;20043;-73
2021/05/01 09:43:33;;;;;;;36.97;22.08;;;9.30;99.90;;;;;;5069529;28;20028;-73
2021/05/01 09:45:59;;;;;;;34.30;21.15;;;9.40;99.90;;;;;;5068002;28;20492;-73
2021/05/01 09:48:24;;;;;;;35.35;22.00;;;9.50;99.90;;;;;;5065417;28;20029;-73
2021/05/01 09:51:03;;;;;;;38.15;22.30;;;9.50;99.90;;;;;;5064467;28;20198;-74
2021/05/01 09:53:29;;;;;;;37.03;19.88;;;9.60;99.90;;;;;;5064860;28;20037;-73
2021/05/01 09:55:55;;;;;;;32.97;20.42;;;9.70;99.90;;;;;;5067510;28;20108;-75
2021/05/01 09:58:25;;;;;;;34.95;22.30;;;9.70;99.90;;;;;;5065062;28;20025;-73
2021/05/01 10:00:53;;;;;;;31.95;19.52;;;9.70;99.90;;;;;;5065956;28;20056;-73
2021/05/01 10:03:23;;;;;;;32.72;20.30;;;9.80;99.90;;;;;;5064912;28;20072;-74
2021/05/01 10:05:50;;;;;;;36.38;22.10;;;9.80;99.90;;;;;;5069397;28;20021;-73
2021/05/01 10:08:18;;;;;;;30.02;18.77;;;9.70;99.90;;;;;;5064429;28;20085;-74
2021/05/01 10:10:45;;;;;;;30.88;18.85;;;9.70;99.90;;;;;;5065310;28;20028;-74
2021/05/01 10:13:14;;;;;;;32.55;19.20;;;9.80;99.90;;;;;;5065673;28;20861;-71
2021/05/01 10:15:40;;;;;;;33.63;21.63;;;9.90;99.90;;;;;;5073322;28;20417;-71
2021/05/01 10:18:16;;;;;;;28.92;19.92;;;9.90;99.90;;;;;;5072050;28;20028;-71
2021/05/01 10:20:50;;;;;;;35.97;22.38;;;9.90;99.90;;;;;;5073488;28;20095;-72
2021/05/01 10:23:20;;;;;;;35.85;22.05;;;10.00;99.90;;;;;;5067716;28;20424;-71
2021/05/01 10:25:47;;;;;;;41.75;22.02;;;10.00;99.90;;;;;;5063934;28;20021;-71
2021/05/01 10:28:19;;;;;;;36.92;21.77;;;10.00;99.90;;;;;;5062461;28;20127;-71
2021/05/01 10:30:54;;;;;;;36.10;23.00;;;9.90;99.90;;;;;;5059361;28;20142;-72
2021/05/01 10:33:26;;;;;;;39.05;24.02;;;10.00;99.90;;;;;;5073464;28;20036;-72
2021/05/01 10:36:03;;;;;;;35.50;21.48;;;9.90;99.90;;;;;;5072266;28;20021;-71
2021/05/01 10:38:30;;;;;;;30.85;19.48;;;9.90;99.90;;;;;;5069475;28;20024;-72
2021/05/01 10:41:01;;;;;;;35.75;22.58;;;10.00;99.90;;;;;;5071897;28;20055;-72
2021/05/01 10:43:29;;;;;;;35.97;22.48;;;10.10;99.90;;;;;;5073478;28;20067;-72
2021/05/01 10:46:05;;;;;;;32.58;20.67;;;10.10;99.90;;;;;;5071819;28;20025;-72
2021/05/01 10:48:32;;;;;;;38.67;24.00;;;10.10;99.90;;;;;;5072581;28;20111;-72
2021/05/01 10:51:07;;;;;;;34.90;21.63;;;10.20;99.90;;;;;;5069979;28;20524;-72
2021/05/01 10:53:33;;;;;;;39.20;22.23;;;10.20;99.90;;;;;;5071137;28;20032;-72
2021/05/01 10:55:59;;;;;;;30.92;21.10;;;10.20;99.90;;;;;;5071482;28;20020;-72
2021/05/01 10:58:33;;;;;;;37.10;21.73;;;10.20;99.90;;;;;;5073214;28;20039;-72
2021/05/01 11:00:58;;;;;;;34.88;21.13;;;10.20;99.90;;;;;;5071987;28;20070;-72
2021/05/01 11:03:26;;;;;;;42.25;23.63;;;10.20;99.90;;;;;;5070190;28;20033;-72
2021/05/01 11:05:58;;;;;;;40.42;24.85;;;10.30;99.90;;;;;;5055479;28;20032;-72
2021/05/01 11:08:50;;;;;;;36.88;22.98;;;10.30;99.90;;;;;;5051806;28;20078;-71
2021/05/01 11:11:17;;;;;;;48.33;26.92;;;10.20;99.90;;;;;;5053230;28;20059;-72
2021/05/01 11:13:48;;;;;;;43.40;25.08;;;10.20;99.90;;;;;;5053039;28;20376;-72
2021/05/01 11:16:16;;;;;;;55.67;28.95;;;10.20;99.90;;;;;;5067543;28;20020;-72
2021/05/01 11:18:44;;;;;;;64.03;32.03;;;10.30;99.90;;;;;;5072890;28;20421;-72
2021/05/01 11:21:13;;;;;;;64.72;30.33;;;10.20;99.90;;;;;;5071674;28;20354;-72
2021/05/01 11:23:39;;;;;;;44.95;25.60;;;10.20;99.90;;;;;;5067468;28;20475;-72
2021/05/01 11:26:07;;;;;;;45.20;24.88;;;10.00;99.90;;;;;;5063820;28;20040;-73
2021/05/01 11:28:35;;;;;;;66.07;30.17;;;10.10;99.90;;;;;;5052718;28;20021;-72
2021/05/01 11:31:01;;;;;;;76.43;34.65;;;10.00;99.90;;;;;;5067167;28;20099;-72
2021/05/01 11:33:27;;;;;;;40.97;21.02;;;10.00;99.90;;;;;;5071686;28;20108;-72
2021/05/01 11:35:54;;;;;;;41.58;22.98;;;10.00;99.90;;;;;;5067584;28;20024;-74
2021/05/01 11:38:37;;;;;;;40.75;23.55;;;10.10;99.90;;;;;;5062755;28;20477;-73
2021/05/01 11:41:08;;;;;;;36.85;22.30;;;10.20;99.90;;;;;;5069806;28;20024;-72
2021/05/01 11:43:36;;;;;;;35.55;20.42;;;10.30;99.90;;;;;;5069953;28;20039;-73
2021/05/01 11:46:09;;;;;;;37.08;22.90;;;10.40;99.90;;;;;;5069548;28;20111;-71
2021/05/01 11:48:57;;;;;;;36.80;22.80;;;10.50;99.90;;;;;;5055605;28;20028;-71
2021/05/01 11:51:41;;;;;;;40.22;21.50;;;10.70;99.90;;;;;;5041745;28;20040;-71
2021/05/01 11:54:21;;;;;;;34.65;21.67;;;10.70;97.60;;;;;;5054043;28;20526;-70
2021/05/01 11:57:01;;;;;;;38.25;22.13;;;10.80;93.50;;;;;;5061033;28;20394;-72
2021/05/01 11:59:27;;;;;;;41.75;23.85;;;10.80;94.30;;;;;;5076290;28;20063;-71
2021/05/01 12:02:01;;;;;;;37.55;22.30;;;10.90;94.70;;;;;;5074501;28;20039;-72
2021/05/01 12:04:56;;;;;;;47.10;24.42;;;10.90;93.70;;;;;;5056453;28;20075;-72
2021/05/01 12:07:44;;;;;;;42.60;22.15;;;10.90;93.50;;;;;;5052506;28;20436;-72
2021/05/01 12:10:13;;;;;;;34.17;21.75;;;11.00;94.70;;;;;;5061667;28;20043;-72
2021/05/01 12:12:57;;;;;;;31.05;19.33;;;11.20;95.20;;;;;;5070988;28;20043;-72
2021/05/01 12:15:34;;;;;;;37.42;20.42;;;11.20;90.00;;;;;;5064088;28;20079;-72
2021/05/01 12:18:01;;;;;;;50.65;26.38;;;11.20;92.20;;;;;;5064259;28;20021;-72
2021/05/01 12:20:29;;;;;;;45.25;24.58;;;11.20;94.30;;;;;;5063517;28;20025;-72
2021/05/01 12:23:06;;;;;;;40.63;22.08;;;11.30;92.10;;;;;;5065917;28;20470;-72
2021/05/01 12:25:34;;;;;;;35.20;20.65;;;11.40;90.10;;;;;;5057957;28;20037;-71
2021/05/01 12:28:01;;;;;;;37.42;21.33;;;11.50;87.70;;;;;;5064673;28;20017;-72
2021/05/01 12:30:36;;;;;;;39.58;22.80;;;11.40;88.10;;;;;;5064864;28;20037;-72
2021/05/01 12:33:26;;;;;;;40.63;23.05;;;11.40;88.10;;;;;;5062747;28;20045;-72
2021/05/01 12:35:55;;;;;;;40.80;24.02;;;11.40;88.80;;;;;;5065674;28;20036;-72
2021/05/01 12:38:23;;;;;;;36.83;22.58;;;11.30;92.00;;;;;;5063552;28;20029;-71
2021/05/01 12:40:49;;;;;;;44.38;25.42;;;11.30;89.60;;;;;;5061996;28;20052;-72